createdAt,value
2023-08-21T00:01:20.991Z,21
2023-08-21T00:03:18.631Z,21
2023-08-21T00:07:13.540Z,21.3
2023-08-21T00:09:11.065Z,21.3
2023-08-21T00:13:14.064Z,21.2
2023-08-21T00:17:09.128Z,21.3
2023-08-21T00:18:11.902Z,21.3
2023-08-21T00:24:04.437Z,21.1
2023-08-21T00:26:09.960Z,20.8
2023-08-21T00:28:07.471Z,20.9
2023-08-21T00:30:04.983Z,20.8
2023-08-21T00:34:00.076Z,20.9
2023-08-21T00:35:57.601Z,20.9
2023-08-21T00:41:58.164Z,20.8
2023-08-21T00:51:45.853Z,20.7
2023-08-21T00:53:51.328Z,20.8
2023-08-21T00:55:48.894Z,20.9
2023-08-21T00:57:46.433Z,20.8
2023-08-21T00:59:43.991Z,20.7
2023-08-21T01:01:41.929Z,20.6
2023-08-21T01:03:39.431Z,20.6
2023-08-21T01:05:37.022Z,20.6
2023-08-21T01:07:42.448Z,20.6
2023-08-21T01:09:39.986Z,20.5
2023-08-21T01:14:04.362Z,20.6
2023-08-21T01:16:02.014Z,20.7
2023-08-21T01:17:59.517Z,20.8
2023-08-21T01:20:04.944Z,20.6
2023-08-21T01:22:02.486Z,20.8
2023-08-21T01:25:57.594Z,20.7
2023-08-21T01:27:55.179Z,20.6
2023-08-21T01:29:52.669Z,20.6
2023-08-21T01:35:53.306Z,20.5
2023-08-21T01:37:50.851Z,20.5
2023-08-21T01:39:48.373Z,20.4
2023-08-21T01:41:45.917Z,20.4
2023-08-21T01:43:43.509Z,20.4
2023-08-21T01:45:41.055Z,20.3
2023-08-21T01:47:46.603Z,20.3
2023-08-21T01:49:44.101Z,20.3
2023-08-21T01:55:36.745Z,20.1
2023-08-21T01:57:34.297Z,20.2
2023-08-21T02:05:32.924Z,20.2
2023-08-21T02:06:35.655Z,20.1
2023-08-21T02:08:33.244Z,20
2023-08-21T02:10:30.811Z,20.1
2023-08-21T02:18:28.930Z,20.2
2023-08-21T02:20:26.619Z,20.2
2023-08-21T02:22:24.074Z,20.1
2023-08-21T02:24:21.621Z,20
2023-08-21T02:28:24.723Z,19.9
2023-08-21T02:32:19.803Z,20.1
2023-08-21T02:34:17.406Z,20.2
2023-08-21T02:38:12.486Z,20.1
2023-08-21T02:40:10.048Z,20.1
2023-08-21T02:42:15.554Z,20
2023-08-21T02:48:08.237Z,19.8
2023-08-21T02:50:05.762Z,19.7
2023-08-21T02:58:03.991Z,19.7
2023-08-21T03:00:01.544Z,19.6
2023-08-21T03:01:04.359Z,19.6
2023-08-21T03:26:48.478Z,19.5
2023-08-21T03:28:46.037Z,19.6
2023-08-21T03:30:43.657Z,19.6
2023-08-21T03:36:44.226Z,19.7
2023-08-21T03:38:41.773Z,19.6
2023-08-21T03:40:39.304Z,19.6
2023-08-21T03:46:32.111Z,19.6
2023-08-21T03:55:32.978Z,19.5
2023-08-21T03:59:28.122Z,19.5
2023-08-21T04:01:25.700Z,19.5
2023-08-21T04:09:23.934Z,19.4
2023-08-21T04:11:21.486Z,19.3
2023-08-21T04:17:22.137Z,19.1
2023-08-21T04:19:19.705Z,19.2
2023-08-21T04:21:17.272Z,19.2
2023-08-21T04:29:07.595Z,19.2
2023-08-21T04:33:10.703Z,19.1
2023-08-21T04:35:08.240Z,19
2023-08-21T04:37:05.809Z,19
2023-08-21T04:39:03.386Z,19.1
2023-08-21T04:41:00.932Z,18.9
2023-08-21T04:42:58.505Z,19
2023-08-21T04:45:04.016Z,18.9
2023-08-21T04:47:01.584Z,18.8
2023-08-21T04:48:59.146Z,18.9
2023-08-21T04:51:26.038Z,18.9
2023-08-21T04:53:23.593Z,18.9
2023-08-21T04:55:21.165Z,18.9
2023-08-21T04:57:26.678Z,18.9
2023-08-21T04:59:24.212Z,18.7
2023-08-21T05:03:19.422Z,18.8
2023-08-21T05:11:17.587Z,19
2023-08-21T05:13:15.158Z,19
2023-08-21T05:17:10.309Z,19.2
2023-08-21T05:19:07.849Z,19.2
2023-08-21T05:21:05.441Z,19.2
2023-08-21T05:23:03.000Z,19.3
2023-08-21T05:29:05.190Z,19.4
2023-08-21T05:31:02.766Z,19.4
2023-08-21T05:34:57.930Z,19.6
2023-08-21T05:36:55.486Z,19.6
2023-08-21T05:39:00.962Z,19.7
2023-08-21T05:40:58.555Z,19.7
2023-08-21T05:42:56.110Z,19.8
2023-08-21T05:43:58.851Z,19.7
2023-08-21T05:45:56.423Z,19.7
2023-08-21T05:55:52.193Z,19.8
2023-08-21T05:57:49.749Z,19.8
2023-08-21T06:07:45.530Z,20.1
2023-08-21T06:11:40.657Z,20.1
2023-08-21T06:13:38.188Z,20.1
2023-08-21T06:15:35.773Z,20.2
2023-08-21T06:17:33.327Z,20.2
2023-08-21T06:21:36.359Z,20.1
2023-08-21T06:27:29.006Z,20
2023-08-21T06:38:27.435Z,20.3
2023-08-21T06:40:24.991Z,20.3
2023-08-21T06:42:22.563Z,20.3
2023-08-21T06:44:20.101Z,20.4
2023-08-21T06:50:20.687Z,20.5
2023-08-21T06:52:18.245Z,20.6
2023-08-21T06:54:15.786Z,20.7
2023-08-21T06:56:13.334Z,20.8
2023-08-21T06:58:10.884Z,20.8
2023-08-21T07:00:16.413Z,20.8
2023-08-21T07:02:13.933Z,20.8
2023-08-21T07:04:11.530Z,20.8
2023-08-21T07:06:09.019Z,21.1
2023-08-21T07:08:06.582Z,20.9
2023-08-21T07:10:04.154Z,21
2023-08-21T07:12:01.723Z,21.2
2023-08-21T07:14:07.185Z,21.2
2023-08-21T07:16:04.769Z,21.1
2023-08-21T07:18:02.334Z,21.1
2023-08-21T07:19:59.798Z,21.3
2023-08-21T07:21:57.361Z,21.3
2023-08-21T07:23:54.894Z,21.4
2023-08-21T07:25:52.446Z,21.6
2023-08-21T07:29:55.477Z,21.5
2023-08-21T07:32:55.948Z,21.8
2023-08-21T07:36:50.783Z,22
2023-08-21T07:38:48.339Z,22
2023-08-21T07:40:53.795Z,22
2023-08-21T07:48:43.957Z,21.8
2023-08-21T07:52:39.324Z,22
2023-08-21T07:54:44.477Z,21.9
2023-08-21T07:56:42.033Z,22
2023-08-21T07:58:39.544Z,22.2
2023-08-21T08:00:37.041Z,22.4
2023-08-21T08:02:34.568Z,22.4
2023-08-21T08:04:32.050Z,22.4
2023-08-21T08:06:29.578Z,22.5
2023-08-21T08:08:35.033Z,22.7
2023-08-21T08:10:32.564Z,22.6
2023-08-21T08:12:30.081Z,22.7
2023-08-21T08:30:44.862Z,23.2
2023-08-21T08:34:47.832Z,23.3
2023-08-21T08:40:40.267Z,23.1
2023-08-21T08:42:37.945Z,23.1
2023-08-21T08:44:35.256Z,23.3
2023-08-21T08:46:32.775Z,23.2
2023-08-21T08:48:38.189Z,23.3
2023-08-21T08:50:35.700Z,23.4
2023-08-21T09:00:23.104Z,23.8
2023-08-21T09:02:28.537Z,24.1
2023-08-21T09:04:26.056Z,24
2023-08-21T09:10:18.455Z,24.1
2023-08-21T09:12:15.914Z,24.2
2023-08-21T09:14:13.355Z,24.2
2023-08-21T09:16:18.818Z,24.2
2023-08-21T09:20:13.699Z,24.3
2023-08-21T09:21:16.423Z,24.2
2023-08-21T09:23:13.909Z,24.2
2023-08-21T09:25:11.358Z,24.2
2023-08-21T09:27:08.771Z,24.2
2023-08-21T09:29:14.219Z,24.2
2023-08-21T09:31:11.689Z,24.2
2023-08-21T09:33:09.175Z,24.3
2023-08-21T09:35:06.594Z,24.4
2023-08-21T09:37:04.037Z,24.3
2023-08-21T09:39:01.507Z,24.4
2023-08-21T09:40:58.824Z,24.4
2023-08-21T09:43:04.230Z,24.5
2023-08-21T09:45:04.076Z,24.6
2023-08-21T09:46:59.162Z,24.4
2023-08-21T09:48:56.617Z,24.5
2023-08-21T09:58:51.836Z,24.7
2023-08-21T10:00:49.297Z,25
2023-08-21T10:06:41.605Z,25.2
2023-08-21T10:08:39.032Z,25.2
2023-08-21T10:10:44.465Z,25.2
2023-08-21T10:12:41.896Z,25.2
2023-08-21T10:14:39.340Z,25.5
2023-08-21T10:15:42.034Z,25.8
2023-08-21T10:27:34.659Z,25
2023-08-21T10:29:32.079Z,25.1
2023-08-21T10:31:29.582Z,25
2023-08-21T10:33:26.984Z,25.3
2023-08-21T10:37:29.779Z,25.6
2023-08-21T10:39:27.202Z,25.6
2023-08-21T10:41:24.607Z,25.6
2023-08-21T10:43:22.042Z,25.8
2023-08-21T10:45:19.451Z,26
2023-08-21T10:47:16.873Z,26.2
2023-08-21T10:49:14.295Z,26.3
2023-08-21T10:51:19.711Z,26.1
2023-08-21T10:53:17.132Z,26.1
2023-08-21T10:57:12.009Z,26.1
2023-08-21T11:01:06.854Z,26.7
2023-08-21T11:03:04.311Z,26.7
2023-08-21T11:07:08.629Z,27.4
2023-08-21T11:09:05.986Z,27.5
2023-08-21T11:10:10.838Z,27.6
2023-08-21T11:14:03.460Z,27.8
2023-08-21T11:16:00.917Z,28
2023-08-21T11:18:06.298Z,28.1
2023-08-21T11:20:03.614Z,28.2
2023-08-21T11:22:01.035Z,28.5
2023-08-21T11:23:58.312Z,28.6
2023-08-21T11:33:53.015Z,28.9
2023-08-21T11:43:39.351Z,29.6
2023-08-21T11:49:39.074Z,29.9
2023-08-21T11:51:36.308Z,30
2023-08-21T11:53:33.483Z,30
2023-08-21T11:55:30.658Z,30.2
2023-08-21T11:57:27.813Z,30
2023-08-21T11:59:33.038Z,29.5
2023-08-21T12:03:27.455Z,30.1
2023-08-21T12:05:53.810Z,30.4
2023-08-21T12:11:53.188Z,30.6
2023-08-21T12:17:44.443Z,30.8
2023-08-21T12:23:35.547Z,30.8
2023-08-21T12:25:40.666Z,30.8
2023-08-21T12:27:37.993Z,31.2
2023-08-21T12:29:34.676Z,31.6
2023-08-21T12:31:31.736Z,31.4
2023-08-21T12:33:28.706Z,31.4
2023-08-21T12:35:25.670Z,31.5
2023-08-21T12:37:22.583Z,31.3
2023-08-21T12:39:27.667Z,32
2023-08-21T12:43:21.546Z,32
2023-08-21T12:57:08.108Z,32.5
2023-08-21T12:58:10.607Z,32.5
2023-08-21T13:00:07.515Z,32.5
2023-08-21T13:02:04.451Z,32.6
2023-08-21T13:04:01.279Z,32.6
2023-08-21T13:06:06.257Z,32.5
2023-08-21T13:08:03.157Z,32.6
2023-08-21T13:11:56.860Z,33.1
2023-08-21T13:13:53.746Z,32.3
2023-08-21T13:27:40.218Z,32.7
2023-08-21T13:29:36.887Z,32.8
2023-08-21T13:37:32.520Z,30.8
2023-08-21T13:39:29.391Z,31.2
2023-08-21T13:51:21.961Z,32.4
2023-08-21T13:52:21.611Z,33.2
2023-08-21T13:54:18.537Z,33.3
2023-08-21T13:56:15.416Z,33.9
2023-08-21T13:58:12.303Z,34
2023-08-21T14:00:17.308Z,34.1
2023-08-21T14:04:11.078Z,34.5
2023-08-21T14:06:07.870Z,34.8
2023-08-21T14:10:01.531Z,36.3
2023-08-21T14:11:58.334Z,36.4
2023-08-21T14:14:03.271Z,35.7
2023-08-21T14:23:47.277Z,31.4
2023-08-21T14:27:49.153Z,33.5
2023-08-21T14:31:42.932Z,35.4
2023-08-21T14:35:36.761Z,37.3
2023-08-21T14:37:33.629Z,37.7
2023-08-21T14:39:30.578Z,37.5
2023-08-21T14:41:35.545Z,37.1
2023-08-21T14:43:32.366Z,37.3
2023-08-21T14:45:29.213Z,37.2
2023-08-21T14:46:43.118Z,37
2023-08-21T14:48:28.492Z,37.4
2023-08-21T14:50:25.329Z,37
2023-08-21T14:52:22.093Z,34.9
2023-08-21T14:54:27.015Z,32.7
2023-08-21T14:56:23.823Z,32
2023-08-21T14:58:20.666Z,31.2
2023-08-21T15:00:17.526Z,30.8
2023-08-21T15:02:14.436Z,30.6
2023-08-21T15:06:08.297Z,30.3
2023-08-21T15:08:13.359Z,31.5
2023-08-21T15:10:10.357Z,31.4
2023-08-21T15:12:07.354Z,30.8
2023-08-21T15:14:04.385Z,30.5
2023-08-21T15:16:01.453Z,30.2
2023-08-21T15:17:58.457Z,30
2023-08-21T15:19:55.562Z,29.9
2023-08-21T15:22:00.753Z,29.6
2023-08-21T15:23:57.854Z,29.7
2023-08-21T15:25:54.956Z,29.5
2023-08-21T15:27:52.110Z,29.3
2023-08-21T15:29:49.251Z,29.3
2023-08-21T15:31:46.447Z,29
2023-08-21T15:33:43.596Z,29
2023-08-21T15:35:48.823Z,29.1
2023-08-21T15:37:46.007Z,29
2023-08-21T15:42:09.849Z,29.2
2023-08-21T15:48:09.571Z,28.9
2023-08-21T15:50:06.758Z,29
2023-08-21T15:52:03.998Z,29.1
2023-08-21T15:54:01.266Z,29.1
2023-08-21T15:55:58.538Z,29
2023-08-21T15:57:55.766Z,28.7
2023-08-21T15:59:53.022Z,28.7
2023-08-21T16:01:58.334Z,28.6
2023-08-21T16:03:55.671Z,28.6
2023-08-21T16:05:52.854Z,28.7
2023-08-21T16:07:50.143Z,28.5
2023-08-21T16:09:47.415Z,28.4
2023-08-21T16:11:44.715Z,28.2
2023-08-21T16:13:42.001Z,28.3
2023-08-21T16:15:47.345Z,28.3
2023-08-21T16:25:33.843Z,28
2023-08-21T16:27:31.166Z,27.8
2023-08-21T16:29:36.482Z,27.8
2023-08-21T16:31:33.918Z,27.8
2023-08-21T16:33:31.156Z,27.8
2023-08-21T16:34:33.798Z,27.8
2023-08-21T16:36:31.163Z,27.7
2023-08-21T16:38:28.504Z,27.6
2023-08-21T16:58:19.510Z,27.2
2023-08-21T17:04:11.624Z,27
2023-08-21T17:06:09.002Z,27
2023-08-21T17:08:06.368Z,26.8
2023-08-21T17:10:11.756Z,26.7
2023-08-21T17:12:09.099Z,26.8
2023-08-21T17:19:58.643Z,26.8
2023-08-21T17:21:56.004Z,26.6
2023-08-21T17:24:01.427Z,26.7
2023-08-21T17:25:58.797Z,26.6
2023-08-21T17:30:56.305Z,26.4
2023-08-21T17:34:51.057Z,26.1
2023-08-21T17:36:56.479Z,26.1
2023-08-21T17:38:53.850Z,26.2
2023-08-21T17:40:51.246Z,26.2
2023-08-21T17:42:48.712Z,26.2
2023-08-21T17:48:40.901Z,25.9
2023-08-21T17:50:46.303Z,25.9
2023-08-21T17:52:43.718Z,25.9
2023-08-21T17:54:41.158Z,25.8
2023-08-21T18:02:33.317Z,25.6
2023-08-21T18:08:31.153Z,25.4
2023-08-21T18:10:28.595Z,25.3
2023-08-21T18:12:26.005Z,25.4
2023-08-21T18:23:23.881Z,25
2023-08-21T18:25:21.283Z,24.9
2023-08-21T18:27:18.702Z,24.8
2023-08-21T18:29:16.178Z,24.7
2023-08-21T18:33:19.012Z,24.7
2023-08-21T18:35:16.489Z,24.6
2023-08-21T18:37:13.904Z,24.7
2023-08-21T18:39:11.367Z,24.8
2023-08-21T18:41:08.839Z,24.6
2023-08-21T18:43:06.267Z,24.6
2023-08-21T18:47:09.175Z,24.5
2023-08-21T18:51:04.080Z,24.3
2023-08-21T18:54:59.028Z,24.3
2023-08-21T18:56:56.503Z,24.3
2023-08-21T18:59:01.906Z,24.2
2023-08-21T19:02:56.896Z,24
2023-08-21T19:07:05.188Z,24
2023-08-21T19:08:49.280Z,23.8
2023-08-21T19:10:46.748Z,24
2023-08-21T19:12:52.204Z,23.8
2023-08-21T19:19:13.968Z,23.6
2023-08-21T19:21:11.425Z,23.7
2023-08-21T19:25:14.359Z,23.7
2023-08-21T19:27:11.849Z,23.6
2023-08-21T19:33:04.345Z,23.4
2023-08-21T19:36:59.259Z,23.4
2023-08-21T19:39:04.726Z,23.4
2023-08-21T19:42:59.693Z,23.3
2023-08-21T19:44:57.176Z,23.2
2023-08-21T19:46:54.686Z,23.2
2023-08-21T19:48:52.177Z,23.2
2023-08-21T19:50:49.671Z,23
2023-08-21T19:52:55.175Z,22.9
2023-08-21T19:54:52.652Z,22.9
2023-08-21T19:56:50.162Z,23
2023-08-21T20:00:45.315Z,22.8
2023-08-21T20:04:40.146Z,22.7
2023-08-21T20:06:45.642Z,22.8
2023-08-21T20:08:43.177Z,22.7
2023-08-21T20:10:40.679Z,22.6
2023-08-21T20:11:43.439Z,22.6
2023-08-21T20:19:41.478Z,22.1
2023-08-21T20:21:38.976Z,22.3
2023-08-21T20:27:31.500Z,22.3
2023-08-21T20:29:29.028Z,22.3
2023-08-21T20:31:26.707Z,22.3
2023-08-21T20:33:32.041Z,22.3
2023-08-21T20:35:29.537Z,22.1
2023-08-21T20:39:24.576Z,22.1
2023-08-21T20:41:22.103Z,22.3
2023-08-21T20:45:17.183Z,22.1
2023-08-21T20:47:22.664Z,22.1
2023-08-21T20:49:20.155Z,22
2023-08-21T20:53:15.217Z,21.9
2023-08-21T20:57:10.300Z,21.8
2023-08-21T20:59:07.826Z,21.9
2023-08-21T21:06:11.108Z,21.7
2023-08-21T21:10:06.136Z,21.7
2023-08-21T21:21:59.298Z,21.6
2023-08-21T21:25:54.413Z,21.5
2023-08-21T21:29:57.404Z,21.5
2023-08-21T21:31:54.918Z,21.5
2023-08-21T21:33:52.486Z,21.4
2023-08-21T21:35:50.027Z,21.4
2023-08-21T21:37:47.548Z,21.4
2023-08-21T21:41:50.579Z,21.4
2023-08-21T21:45:45.677Z,21.2
2023-08-21T21:49:40.796Z,21.3
2023-08-21T21:51:38.321Z,21
2023-08-21T21:53:35.837Z,21.2
2023-08-21T21:55:41.356Z,21.3
2023-08-21T22:00:39.179Z,21.3
2023-08-21T22:04:34.295Z,21.2
2023-08-21T22:06:31.821Z,21.2
2023-08-21T22:08:37.341Z,21.3
2023-08-21T22:10:34.871Z,21.3
2023-08-21T22:16:27.516Z,21.6
2023-08-21T22:24:25.637Z,21.5
2023-08-21T22:30:19.831Z,21.6
2023-08-21T22:32:17.396Z,21.4
2023-08-21T22:36:20.423Z,21.3
2023-08-21T22:38:17.931Z,21.3
2023-08-21T22:40:15.477Z,21.3
2023-08-21T22:42:13.042Z,21.4
2023-08-21T22:46:08.135Z,21.3
2023-08-21T22:54:06.274Z,21.2
2023-08-21T22:58:30.683Z,21.1
2023-08-21T23:04:31.268Z,21
2023-08-21T23:06:28.783Z,20.9
2023-08-21T23:12:21.415Z,21.1
2023-08-21T23:14:18.930Z,21.1
2023-08-21T23:16:24.456Z,21
2023-08-21T23:18:23.698Z,21.1
2023-08-21T23:32:12.821Z,21
2023-08-21T23:34:10.352Z,20.8
2023-08-21T23:36:07.882Z,20.7
2023-08-21T23:38:05.437Z,20.7
2023-08-21T23:42:00.546Z,20.8
2023-08-21T23:44:06.036Z,20.8
2023-08-21T23:46:03.591Z,20.9
2023-08-21T23:48:01.213Z,20.9
